Flugplatz Altdorf-Wallburg

Für EDSW sind keine METAR/TAF Berichte vorhanden.
Es werden die Flugwettermeldungen vom Flugplatz Lahr in 11 km Entfernung angezeigt.

Bericht für EDTL

vom 23.08. um 13:20 UTC

Wind 8 kt aus 360°

Sichtweite 10 km oder mehr

gute Sicht, keine Wolken < 5000 ft, keine CB, keine Wettererscheinungen (CAVOK)

Temperatur 26.0°C

Taupunkt 14.0°C

Luftfeuchtigkeit 48%

Luftdruck 1022 hPa

EDTL 231320Z 36008KT 320V060 CAVOK 26/14 Q1022

Prognose für EDTL

vom 23.08. um 00:00 UTC

Zwischen 00:00 UTC und 00:00 UTC

Wind 8 kt aus 20°

Sichtweite 10 km oder mehr

keine signifikanten Wettererscheinungen

keine Wolken

TAF EDTL 231100Z 2312/2321 02008KT CAVOK
Impressum